createdAt,value
2016-07-06T00:00:05.667Z,1002.37
2016-07-06T00:01:05.688Z,1002.37
2016-07-06T00:02:05.712Z,1002.36
2016-07-06T00:03:05.744Z,1002.4
2016-07-06T00:04:05.771Z,1002.38
2016-07-06T00:05:05.794Z,1002.38
2016-07-06T00:06:05.816Z,1002.42
2016-07-06T00:07:05.846Z,1002.4
2016-07-06T00:08:05.873Z,1002.4
2016-07-06T00:09:05.899Z,1002.42
2016-07-06T00:10:05.923Z,1002.42
2016-07-06T00:11:05.949Z,1002.46
2016-07-06T00:12:05.976Z,1002.45
2016-07-06T00:13:06.003Z,1002.44
2016-07-06T00:14:06.026Z,1002.48
2016-07-06T00:15:06.049Z,1002.46
2016-07-06T00:16:06.079Z,1002.47
2016-07-06T00:17:06.098Z,1002.47
2016-07-06T00:18:06.133Z,1002.47
2016-07-06T00:19:06.166Z,1002.43
2016-07-06T00:20:06.179Z,1002.47
2016-07-06T00:21:06.209Z,1002.4
2016-07-06T00:22:06.229Z,1002.42
2016-07-06T00:23:06.259Z,1002.4
2016-07-06T00:24:06.286Z,1002.4
2016-07-06T00:25:06.307Z,1002.4
2016-07-06T00:26:06.332Z,1002.44
2016-07-06T00:27:06.371Z,1002.41
2016-07-06T00:28:06.391Z,1002.46
2016-07-06T00:29:06.417Z,1002.42
2016-07-06T00:30:06.438Z,1002.44
2016-07-06T00:31:06.464Z,1002.4
2016-07-06T00:32:06.494Z,1002.4
2016-07-06T00:33:06.527Z,1002.42
2016-07-06T00:34:06.537Z,1002.39
2016-07-06T00:35:06.566Z,1002.41
2016-07-06T00:36:06.589Z,1002.42
2016-07-06T00:37:06.618Z,1002.38
2016-07-06T00:38:06.644Z,1002.37
2016-07-06T00:39:06.665Z,1002.39
2016-07-06T00:40:06.696Z,1002.34
2016-07-06T00:41:06.726Z,1002.37
2016-07-06T00:42:06.748Z,1002.37
2016-07-06T00:43:06.771Z,1002.41
2016-07-06T00:44:06.800Z,1002.36
2016-07-06T00:45:06.827Z,1002.43
2016-07-06T00:46:06.849Z,1002.5
2016-07-06T00:47:06.869Z,1002.43
2016-07-06T00:48:06.907Z,1002.45
2016-07-06T00:49:06.929Z,1002.53
2016-07-06T00:50:06.945Z,1002.5
2016-07-06T00:51:06.979Z,1002.45
2016-07-06T00:52:07.002Z,1002.52
2016-07-06T00:53:07.025Z,1002.54
2016-07-06T00:54:07.049Z,1002.54
2016-07-06T00:55:07.082Z,1002.56
2016-07-06T00:56:07.103Z,1002.55
2016-07-06T00:57:07.133Z,1002.57
2016-07-06T00:58:07.155Z,1002.56
2016-07-06T00:59:07.182Z,1002.55
2016-07-06T01:00:07.214Z,1002.56
2016-07-06T01:01:07.231Z,1002.56
2016-07-06T01:02:07.257Z,1002.6
2016-07-06T01:03:07.285Z,1002.58
2016-07-06T01:04:07.310Z,1002.61
2016-07-06T01:05:07.332Z,1002.61
2016-07-06T01:06:07.356Z,1002.63
2016-07-06T01:07:07.382Z,1002.67
2016-07-06T01:08:07.412Z,1002.66
2016-07-06T01:09:07.492Z,1002.69
2016-07-06T01:10:07.461Z,1002.67
2016-07-06T01:11:07.547Z,1002.66
2016-07-06T01:12:07.508Z,1002.63
2016-07-06T01:13:07.539Z,1002.69
2016-07-06T01:14:07.558Z,1002.68
2016-07-06T01:15:07.585Z,1002.66
2016-07-06T01:16:07.609Z,1002.66
2016-07-06T01:17:07.642Z,1002.67
2016-07-06T01:18:07.662Z,1002.66
2016-07-06T01:19:07.682Z,1002.64
2016-07-06T01:20:07.710Z,1002.64
2016-07-06T01:21:07.741Z,1002.62
2016-07-06T01:22:07.765Z,1002.64
2016-07-06T01:23:07.784Z,1002.68
2016-07-06T01:24:07.812Z,1002.67
2016-07-06T01:25:07.841Z,1002.65
2016-07-06T01:26:07.864Z,1002.67
2016-07-06T01:27:07.884Z,1002.69
2016-07-06T01:28:07.919Z,1002.73
2016-07-06T01:29:07.940Z,1002.71
2016-07-06T01:30:07.966Z,1002.73
2016-07-06T01:31:07.988Z,1002.7
2016-07-06T01:32:08.019Z,1002.73
2016-07-06T01:33:08.041Z,1002.7
2016-07-06T01:34:08.064Z,1002.7
2016-07-06T01:35:08.092Z,1002.68
2016-07-06T01:36:08.112Z,1002.73
2016-07-06T01:37:08.145Z,1002.75
2016-07-06T01:38:08.164Z,1002.72
2016-07-06T01:39:08.192Z,1002.76
2016-07-06T01:40:08.218Z,1002.74
2016-07-06T01:41:08.243Z,1002.8
2016-07-06T01:42:08.271Z,1002.82
2016-07-06T01:43:08.289Z,1002.81
2016-07-06T01:44:08.311Z,1002.79
2016-07-06T01:45:08.344Z,1002.81
2016-07-06T01:46:08.370Z,1002.79
2016-07-06T01:47:08.388Z,1002.85
2016-07-06T01:48:08.415Z,1002.83
2016-07-06T01:49:08.441Z,1002.82
2016-07-06T01:50:08.469Z,1002.85
2016-07-06T01:51:08.492Z,1002.87
2016-07-06T01:52:08.518Z,1002.83
2016-07-06T01:53:08.541Z,1002.79
2016-07-06T01:54:08.568Z,1002.81
2016-07-06T01:55:08.593Z,1002.79
2016-07-06T01:56:08.618Z,1002.78
2016-07-06T01:57:08.649Z,1002.77
2016-07-06T01:58:08.670Z,1002.8
2016-07-06T01:59:08.696Z,1002.81
2016-07-06T02:00:08.722Z,1002.83
2016-07-06T02:01:08.747Z,1002.85
2016-07-06T02:02:08.770Z,1002.87
2016-07-06T02:03:08.798Z,1002.86
2016-07-06T02:04:08.819Z,1002.87
2016-07-06T02:05:08.847Z,1002.89
2016-07-06T02:06:08.870Z,1002.88
2016-07-06T02:07:08.910Z,1002.84
2016-07-06T02:08:08.921Z,1002.84
2016-07-06T02:09:08.949Z,1002.89
2016-07-06T02:10:08.963Z,1002.81
2016-07-06T02:11:08.993Z,1002.86
2016-07-06T02:12:09.021Z,1002.9
2016-07-06T02:13:09.044Z,1002.87
2016-07-06T02:14:09.067Z,1002.89
2016-07-06T02:15:09.098Z,1002.91
2016-07-06T02:16:09.120Z,1002.93
2016-07-06T02:17:09.144Z,1002.87
2016-07-06T02:18:09.171Z,1002.92
2016-07-06T02:19:09.192Z,1002.93
2016-07-06T02:20:09.218Z,1002.91
2016-07-06T02:21:09.242Z,1002.94
2016-07-06T02:22:09.276Z,1002.92
2016-07-06T02:23:09.297Z,1002.92
2016-07-06T02:24:09.324Z,1002.89
2016-07-06T02:25:09.353Z,1002.93
2016-07-06T02:26:09.372Z,1002.91
2016-07-06T02:27:09.396Z,1002.89
2016-07-06T02:28:09.417Z,1002.92
2016-07-06T02:29:09.442Z,1002.9
2016-07-06T02:30:09.466Z,1002.93
2016-07-06T02:31:09.495Z,1002.91
2016-07-06T02:32:09.516Z,1002.9
2016-07-06T02:33:09.540Z,1002.91
2016-07-06T02:34:09.567Z,1002.91
2016-07-06T02:35:09.592Z,1002.89
2016-07-06T02:36:09.617Z,1002.89
2016-07-06T02:37:09.643Z,1002.89
2016-07-06T02:38:09.667Z,1002.93
2016-07-06T02:39:09.691Z,1002.89
2016-07-06T02:40:09.717Z,1002.91
2016-07-06T02:41:09.740Z,1002.9
2016-07-06T02:42:09.767Z,1002.86
2016-07-06T02:43:09.790Z,1002.89
2016-07-06T02:44:09.813Z,1002.91
2016-07-06T02:45:09.840Z,1002.9
2016-07-06T02:46:09.985Z,1002.88
2016-07-06T02:47:09.886Z,1002.91
2016-07-06T02:48:09.965Z,1002.92
2016-07-06T02:49:09.967Z,1002.92
2016-07-06T02:50:09.976Z,1002.89
2016-07-06T02:51:09.990Z,1002.89
2016-07-06T02:52:10.133Z,1002.86
2016-07-06T02:53:10.142Z,1002.9
2016-07-06T02:54:10.161Z,1002.92
2016-07-06T02:55:10.170Z,1002.92
2016-07-06T02:56:10.180Z,1002.93
2016-07-06T02:57:10.189Z,1002.9
2016-07-06T02:58:10.197Z,1002.91
2016-07-06T02:59:10.196Z,1002.89
2016-07-06T03:00:10.208Z,1002.95
2016-07-06T03:01:10.255Z,1002.9
2016-07-06T03:02:10.268Z,1003
2016-07-06T03:03:10.283Z,1003
2016-07-06T03:04:10.308Z,1003.02
2016-07-06T03:05:10.329Z,1002.98
2016-07-06T03:06:10.357Z,1003.06
2016-07-06T03:07:10.380Z,1003
2016-07-06T03:08:10.401Z,1003.03
2016-07-06T03:09:10.430Z,1003.03
2016-07-06T03:10:10.450Z,1003.06
2016-07-06T03:11:10.477Z,1003.08
2016-07-06T03:12:10.501Z,1003.12
2016-07-06T03:13:10.526Z,1003.15
2016-07-06T03:14:10.549Z,1003.11
2016-07-06T03:15:10.573Z,1003.15
2016-07-06T03:16:10.596Z,1003.14
2016-07-06T03:17:10.621Z,1003.14
2016-07-06T03:18:10.647Z,1003.12
2016-07-06T03:19:10.671Z,1003.09
2016-07-06T03:20:10.697Z,1003.07
2016-07-06T03:21:10.718Z,1003.08
2016-07-06T03:22:10.748Z,1003.08
2016-07-06T03:23:10.769Z,1003.1
2016-07-06T03:24:10.796Z,1003.05
2016-07-06T03:25:10.819Z,1003.05
2016-07-06T03:26:10.842Z,1003.06
2016-07-06T03:27:10.868Z,1003.05
2016-07-06T03:28:10.894Z,1003.08
2016-07-06T03:29:10.918Z,1003.12
2016-07-06T03:30:10.947Z,1003.09
2016-07-06T03:31:10.967Z,1003.1
2016-07-06T03:32:10.998Z,1003.07
2016-07-06T03:33:11.019Z,1003.14
2016-07-06T03:34:11.041Z,1003.15
2016-07-06T03:35:11.071Z,1003.17
2016-07-06T03:36:11.091Z,1003.2
2016-07-06T03:37:11.110Z,1003.19
2016-07-06T03:38:11.139Z,1003.17
2016-07-06T03:39:11.164Z,1003.15
2016-07-06T03:40:11.183Z,1003.2
2016-07-06T03:41:11.206Z,1003.19
2016-07-06T03:42:11.239Z,1003.24
2016-07-06T03:43:11.313Z,1003.21
2016-07-06T03:44:11.285Z,1003.27
2016-07-06T03:45:11.309Z,1003.22
2016-07-06T03:46:11.336Z,1003.21
2016-07-06T03:47:11.356Z,1003.28
2016-07-06T03:48:11.383Z,1003.31
2016-07-06T03:49:11.404Z,1003.32
2016-07-06T03:50:11.436Z,1003.33
2016-07-06T03:51:11.451Z,1003.26
2016-07-06T03:52:11.479Z,1003.3
2016-07-06T03:53:11.503Z,1003.3
2016-07-06T03:54:11.527Z,1003.37
2016-07-06T03:55:11.556Z,1003.36
2016-07-06T03:56:11.578Z,1003.32
2016-07-06T03:57:11.604Z,1003.35
2016-07-06T03:58:11.641Z,1003.33
2016-07-06T03:59:11.650Z,1003.34
2016-07-06T04:00:11.672Z,1003.37
2016-07-06T04:01:11.698Z,1003.38
2016-07-06T04:02:11.717Z,1003.36
2016-07-06T04:03:11.745Z,1003.36
2016-07-06T04:04:11.774Z,1003.35
2016-07-06T04:05:11.797Z,1003.28
2016-07-06T04:06:11.824Z,1003.31
2016-07-06T04:07:11.841Z,1003.28
2016-07-06T04:08:11.868Z,1003.29
2016-07-06T04:09:11.890Z,1003.3
2016-07-06T04:10:11.917Z,1003.34
2016-07-06T04:11:11.936Z,1003.36
2016-07-06T04:12:11.959Z,1003.31
2016-07-06T04:13:11.990Z,1003.34
2016-07-06T04:14:12.013Z,1003.32
2016-07-06T04:15:12.034Z,1003.36
2016-07-06T04:16:12.067Z,1003.35
2016-07-06T04:17:12.080Z,1003.4
2016-07-06T04:18:12.099Z,1003.42
2016-07-06T04:19:12.128Z,1003.48
2016-07-06T04:20:12.152Z,1003.45
2016-07-06T04:21:12.174Z,1003.46
2016-07-06T04:22:12.200Z,1003.48
2016-07-06T04:23:12.225Z,1003.41
2016-07-06T04:24:12.251Z,1003.45
2016-07-06T04:25:12.274Z,1003.42
2016-07-06T04:26:12.301Z,1003.4
2016-07-06T04:27:12.320Z,1003.43
2016-07-06T04:28:12.460Z,1003.38
2016-07-06T04:29:12.364Z,1003.4
2016-07-06T04:30:12.387Z,1003.44
2016-07-06T04:31:12.419Z,1003.46
2016-07-06T04:32:12.445Z,1003.43
2016-07-06T04:33:12.459Z,1003.44
2016-07-06T04:34:12.487Z,1003.5
2016-07-06T04:35:12.516Z,1003.53
2016-07-06T04:36:12.533Z,1003.55
2016-07-06T04:37:12.558Z,1003.52
2016-07-06T04:38:12.585Z,1003.55
2016-07-06T04:39:12.609Z,1003.62
2016-07-06T04:40:12.628Z,1003.59
2016-07-06T04:41:12.658Z,1003.63
2016-07-06T04:42:12.999Z,1003.67
2016-07-06T04:43:12.715Z,1003.64
2016-07-06T04:44:12.849Z,1003.65
2016-07-06T04:45:12.750Z,1003.62
2016-07-06T04:46:12.776Z,1003.67
2016-07-06T04:47:12.794Z,1003.69
2016-07-06T04:48:12.822Z,1003.65
2016-07-06T04:49:12.904Z,1003.62
2016-07-06T04:50:12.873Z,1003.6
2016-07-06T04:51:12.894Z,1003.63
2016-07-06T04:52:12.920Z,1003.6
2016-07-06T04:53:12.942Z,1003.62
2016-07-06T04:54:12.966Z,1003.65
2016-07-06T04:55:12.990Z,1003.64
2016-07-06T04:56:13.014Z,1003.6
2016-07-06T04:57:13.038Z,1003.61
2016-07-06T04:58:13.062Z,1003.7
2016-07-06T04:59:13.085Z,1003.68
2016-07-06T05:00:13.186Z,1003.73
2016-07-06T05:01:13.134Z,1003.71
2016-07-06T05:02:13.158Z,1003.79
2016-07-06T05:03:13.178Z,1003.79
2016-07-06T05:04:13.205Z,1003.8
2016-07-06T05:05:13.229Z,1003.77
2016-07-06T05:06:13.259Z,1003.76
2016-07-06T05:07:13.280Z,1003.73
2016-07-06T05:08:13.302Z,1003.72
2016-07-06T05:09:13.326Z,1003.77
2016-07-06T05:10:13.359Z,1003.77
2016-07-06T05:11:13.370Z,1003.79
2016-07-06T05:12:13.397Z,1003.77
2016-07-06T05:13:13.418Z,1003.79
2016-07-06T05:14:13.443Z,1003.82
2016-07-06T05:15:13.469Z,1003.78
2016-07-06T05:16:13.491Z,1003.81
2016-07-06T05:17:13.517Z,1003.8
2016-07-06T05:18:13.542Z,1003.8
2016-07-06T05:19:13.566Z,1003.83
2016-07-06T05:20:13.591Z,1003.9
2016-07-06T05:21:13.615Z,1003.81
2016-07-06T05:22:13.637Z,1003.87
2016-07-06T05:23:13.664Z,1003.87
2016-07-06T05:24:13.687Z,1003.84
2016-07-06T05:25:13.717Z,1003.91
2016-07-06T05:26:13.773Z,1003.88
2016-07-06T05:27:13.763Z,1003.86
2016-07-06T05:28:13.785Z,1003.86
2016-07-06T05:29:13.809Z,1003.84
2016-07-06T05:30:13.834Z,1003.95
2016-07-06T05:31:13.958Z,1003.94
2016-07-06T05:32:13.883Z,1003.97
2016-07-06T05:33:13.900Z,1003.95
2016-07-06T05:34:13.928Z,1003.93
2016-07-06T05:35:13.953Z,1004
2016-07-06T05:36:13.975Z,1004.04
2016-07-06T05:37:14.001Z,1004
2016-07-06T05:38:14.031Z,1004
2016-07-06T05:39:14.049Z,1004.06
2016-07-06T05:40:14.076Z,1004.05
2016-07-06T05:41:14.100Z,1004.1
2016-07-06T05:42:14.121Z,1004.08
2016-07-06T05:43:14.204Z,1004.12
2016-07-06T05:44:14.168Z,1004.13
2016-07-06T05:45:14.196Z,1004.09
2016-07-06T05:46:14.219Z,1004.03
2016-07-06T05:47:14.251Z,1004.09
2016-07-06T05:48:14.266Z,1004.08
2016-07-06T05:49:14.294Z,1004.05
2016-07-06T05:50:14.322Z,1004.09
2016-07-06T05:51:14.342Z,1004.05
2016-07-06T05:52:14.363Z,1004.04
2016-07-06T05:53:14.385Z,1004.08
2016-07-06T05:54:14.413Z,1004.11
2016-07-06T05:55:14.446Z,1004.07
2016-07-06T05:56:14.458Z,1004.1
2016-07-06T05:57:14.481Z,1004.09
2016-07-06T05:58:14.507Z,1004.09
2016-07-06T05:59:14.527Z,1004.13
2016-07-06T06:00:14.555Z,1004.07
2016-07-06T06:01:14.581Z,1004.15
2016-07-06T06:02:14.603Z,1004.17
2016-07-06T06:03:14.629Z,1004.11
2016-07-06T06:04:14.652Z,1004.19
2016-07-06T06:05:14.675Z,1004.19
2016-07-06T06:06:14.704Z,1004.19
2016-07-06T06:07:14.723Z,1004.2
2016-07-06T06:08:14.748Z,1004.18
2016-07-06T06:09:14.777Z,1004.2
2016-07-06T06:10:14.795Z,1004.18
2016-07-06T06:11:14.820Z,1004.17
2016-07-06T06:12:14.843Z,1004.22
2016-07-06T06:13:14.871Z,1004.27
2016-07-06T06:14:14.891Z,1004.21
2016-07-06T06:15:14.916Z,1004.24
2016-07-06T06:16:14.941Z,1004.22
2016-07-06T06:17:14.967Z,1004.32
2016-07-06T06:18:14.986Z,1004.31
2016-07-06T06:19:15.024Z,1004.38
2016-07-06T06:20:15.034Z,1004.33
2016-07-06T06:21:15.059Z,1004.33
2016-07-06T06:22:15.082Z,1004.28
2016-07-06T06:23:15.108Z,1004.21
2016-07-06T06:24:15.131Z,1004.27
2016-07-06T06:25:15.163Z,1004.27
2016-07-06T06:26:15.180Z,1004.33
2016-07-06T06:27:15.204Z,1004.28
2016-07-06T06:28:15.228Z,1004.33
2016-07-06T06:29:15.253Z,1004.31
2016-07-06T06:30:15.277Z,1004.3
2016-07-06T06:31:15.299Z,1004.3
2016-07-06T06:32:15.324Z,1004.29
2016-07-06T06:33:15.348Z,1004.31
2016-07-06T06:34:15.374Z,1004.35
2016-07-06T06:35:15.393Z,1004.41
2016-07-06T06:36:15.421Z,1004.34
2016-07-06T06:37:15.450Z,1004.38
2016-07-06T06:38:15.470Z,1004.36
2016-07-06T06:39:15.494Z,1004.36
2016-07-06T06:40:15.519Z,1004.36
2016-07-06T06:41:15.542Z,1004.33
2016-07-06T06:42:15.566Z,1004.4
2016-07-06T06:43:15.639Z,1004.45
2016-07-06T06:44:15.613Z,1004.37
2016-07-06T06:45:15.640Z,1004.37
2016-07-06T06:46:15.663Z,1004.42
2016-07-06T06:47:15.687Z,1004.32
2016-07-06T06:48:15.712Z,1004.32
2016-07-06T06:49:15.738Z,1004.34
2016-07-06T06:50:15.757Z,1004.38
2016-07-06T06:51:15.780Z,1004.39
2016-07-06T06:52:15.814Z,1004.33
2016-07-06T06:53:15.834Z,1004.31
2016-07-06T06:54:15.859Z,1004.34
2016-07-06T06:55:15.881Z,1004.32
2016-07-06T06:56:15.906Z,1004.31
2016-07-06T06:57:15.926Z,1004.3
2016-07-06T06:58:15.950Z,1004.33
2016-07-06T06:59:15.975Z,1004.36
2016-07-06T07:00:16.003Z,1004.37
2016-07-06T07:01:16.027Z,1004.36
2016-07-06T07:02:16.047Z,1004.38
2016-07-06T07:03:16.076Z,1004.41
2016-07-06T07:04:16.101Z,1004.38
2016-07-06T07:05:16.126Z,1004.41
2016-07-06T07:06:16.148Z,1004.5
2016-07-06T07:07:16.173Z,1004.48
2016-07-06T07:08:16.204Z,1004.45
2016-07-06T07:09:16.221Z,1004.52
2016-07-06T07:10:16.248Z,1004.52
2016-07-06T07:11:16.267Z,1004.55
2016-07-06T07:12:16.297Z,1004.47
2016-07-06T07:13:16.319Z,1004.5
2016-07-06T07:14:16.340Z,1004.51
2016-07-06T07:15:16.369Z,1004.53
2016-07-06T07:16:16.392Z,1004.5
2016-07-06T07:17:16.412Z,1004.5
2016-07-06T07:18:16.442Z,1004.59
2016-07-06T07:19:16.470Z,1004.48
2016-07-06T07:20:16.491Z,1004.51
2016-07-06T07:21:16.517Z,1004.59
2016-07-06T07:22:16.544Z,1004.59
2016-07-06T07:23:16.565Z,1004.55
2016-07-06T07:24:16.588Z,1004.52
2016-07-06T07:25:16.612Z,1004.48
2016-07-06T07:26:16.636Z,1004.45
2016-07-06T07:27:16.671Z,1004.46
2016-07-06T07:28:16.686Z,1004.44
2016-07-06T07:29:16.713Z,1004.49
2016-07-06T07:30:16.735Z,1004.49
2016-07-06T07:31:16.770Z,1004.54
2016-07-06T07:32:16.789Z,1004.52
2016-07-06T07:33:16.810Z,1004.6
2016-07-06T07:34:16.832Z,1004.57
2016-07-06T07:35:16.851Z,1004.61
2016-07-06T07:36:16.884Z,1004.7
2016-07-06T07:37:16.904Z,1004.66
2016-07-06T07:38:16.929Z,1004.65
2016-07-06T07:39:16.954Z,1004.65
2016-07-06T07:40:16.980Z,1004.62
2016-07-06T07:41:17.005Z,1004.64
2016-07-06T07:42:17.031Z,1004.63
2016-07-06T07:43:17.106Z,1004.67
2016-07-06T07:44:17.079Z,1004.71
2016-07-06T07:45:17.104Z,1004.66
2016-07-06T07:46:17.124Z,1004.64
2016-07-06T07:47:17.152Z,1004.65
2016-07-06T07:48:17.179Z,1004.58
2016-07-06T07:49:17.201Z,1004.55
2016-07-06T07:50:17.221Z,1004.63
2016-07-06T07:51:17.250Z,1004.57
2016-07-06T07:52:17.270Z,1004.58
2016-07-06T07:53:17.300Z,1004.58
2016-07-06T07:54:17.324Z,1004.5
2016-07-06T07:55:17.349Z,1004.52
2016-07-06T07:56:17.376Z,1004.5
2016-07-06T07:57:17.399Z,1004.51
2016-07-06T07:58:17.423Z,1004.54
2016-07-06T07:59:17.447Z,1004.55
2016-07-06T08:00:17.470Z,1004.55
2016-07-06T08:01:17.497Z,1004.61
2016-07-06T08:02:17.518Z,1004.57
2016-07-06T08:03:17.546Z,1004.61
2016-07-06T08:04:17.571Z,1004.59
2016-07-06T08:05:17.597Z,1004.59
2016-07-06T08:06:17.619Z,1004.61
2016-07-06T08:07:17.646Z,1004.59
2016-07-06T08:08:17.668Z,1004.64
2016-07-06T08:09:17.701Z,1004.65
2016-07-06T08:10:17.717Z,1004.64
2016-07-06T08:11:17.742Z,1004.69
2016-07-06T08:12:17.768Z,1004.63
2016-07-06T08:13:17.787Z,1004.59
2016-07-06T08:14:17.814Z,1004.57
2016-07-06T08:15:17.840Z,1004.63
2016-07-06T08:16:17.865Z,1004.58
2016-07-06T08:17:17.890Z,1004.57
2016-07-06T08:18:17.913Z,1004.62
2016-07-06T08:19:17.938Z,1004.66
2016-07-06T08:20:17.963Z,1004.6
2016-07-06T08:21:17.994Z,1004.65
2016-07-06T08:22:18.015Z,1004.77
2016-07-06T08:23:18.036Z,1004.62
2016-07-06T08:24:18.063Z,1004.64
2016-07-06T08:25:18.086Z,1004.6
2016-07-06T08:26:18.113Z,1004.68
2016-07-06T08:27:18.133Z,1004.62
2016-07-06T08:28:18.162Z,1004.67
2016-07-06T08:29:18.188Z,1004.6
2016-07-06T08:30:18.210Z,1004.65
2016-07-06T08:31:18.237Z,1004.7
2016-07-06T08:32:18.260Z,1004.73
2016-07-06T08:33:18.283Z,1004.67
2016-07-06T08:34:18.311Z,1004.68
2016-07-06T08:35:18.337Z,1004.68
2016-07-06T08:36:18.359Z,1004.68
2016-07-06T08:37:18.384Z,1004.67
2016-07-06T08:38:18.411Z,1004.71
2016-07-06T08:39:18.434Z,1004.74
2016-07-06T08:40:18.456Z,1004.76
2016-07-06T08:41:18.481Z,1004.77
2016-07-06T08:42:18.510Z,1004.79
2016-07-06T08:43:18.581Z,1004.78
2016-07-06T08:44:18.558Z,1004.79
2016-07-06T08:45:18.583Z,1004.79
2016-07-06T08:46:18.610Z,1004.85
2016-07-06T08:47:18.632Z,1004.81
2016-07-06T08:48:18.660Z,1004.82
2016-07-06T08:49:18.684Z,1004.78
2016-07-06T08:50:18.705Z,1004.81
2016-07-06T08:51:18.735Z,1004.84
2016-07-06T08:52:18.755Z,1004.78
2016-07-06T08:53:18.782Z,1004.78
2016-07-06T08:54:18.813Z,1004.84
2016-07-06T08:55:18.834Z,1004.84
2016-07-06T08:56:18.866Z,1004.84
2016-07-06T08:57:18.882Z,1004.85
2016-07-06T08:58:18.909Z,1004.87
2016-07-06T08:59:18.933Z,1004.85
2016-07-06T09:00:18.962Z,1004.84
2016-07-06T09:01:18.982Z,1004.87
2016-07-06T09:02:19.010Z,1004.81
2016-07-06T09:03:19.035Z,1004.84
2016-07-06T09:04:19.059Z,1004.86
2016-07-06T09:05:19.084Z,1004.81
2016-07-06T09:06:19.110Z,1004.82
2016-07-06T09:07:19.134Z,1004.89
2016-07-06T09:08:19.160Z,1004.92
2016-07-06T09:09:19.187Z,1004.97
2016-07-06T09:10:19.209Z,1004.94
2016-07-06T09:11:19.237Z,1004.92
2016-07-06T09:12:19.259Z,1004.92
2016-07-06T09:13:19.284Z,1004.98
2016-07-06T09:14:19.309Z,1004.95
2016-07-06T09:15:19.335Z,1004.99
2016-07-06T09:16:19.361Z,1004.99
2016-07-06T09:17:19.386Z,1005.05
2016-07-06T09:18:19.410Z,1005.03
2016-07-06T09:19:19.435Z,1005.07
2016-07-06T09:20:19.461Z,1005.09
2016-07-06T09:21:19.486Z,1005.11
2016-07-06T09:22:19.509Z,1005.13
2016-07-06T09:23:19.533Z,1005.15
2016-07-06T09:24:19.562Z,1005.13
2016-07-06T09:25:19.586Z,1005.13
2016-07-06T09:26:19.612Z,1005.19
2016-07-06T09:27:19.648Z,1005.18
2016-07-06T09:28:19.672Z,1005.17
2016-07-06T09:29:19.687Z,1005.16
2016-07-06T09:30:19.715Z,1005.15
2016-07-06T09:31:19.738Z,1005.21
2016-07-06T09:32:19.764Z,1005.21
2016-07-06T09:33:19.793Z,1005.12
2016-07-06T09:34:19.820Z,1005.16
2016-07-06T09:35:19.840Z,1005.14
2016-07-06T09:36:19.867Z,1005.15
2016-07-06T09:37:19.891Z,1005.16
2016-07-06T09:38:19.914Z,1005.11
2016-07-06T09:39:19.942Z,1005.14
2016-07-06T09:40:19.965Z,1005.13
2016-07-06T09:41:19.993Z,1005.15
2016-07-06T09:42:20.026Z,1005.18
2016-07-06T09:43:20.044Z,1005.18
2016-07-06T09:44:20.074Z,1005.14
2016-07-06T09:45:20.103Z,1005.16
2016-07-06T09:46:20.119Z,1005.2
2016-07-06T09:47:20.154Z,1005.23
2016-07-06T09:48:20.179Z,1005.3
2016-07-06T09:49:20.197Z,1005.3
2016-07-06T09:50:20.222Z,1005.31
2016-07-06T09:51:20.251Z,1005.32
2016-07-06T09:52:20.276Z,1005.31
2016-07-06T09:53:20.305Z,1005.33
2016-07-06T09:54:20.328Z,1005.26
2016-07-06T09:55:20.354Z,1005.32
2016-07-06T09:56:20.379Z,1005.31
2016-07-06T09:57:20.409Z,1005.28
2016-07-06T09:58:20.429Z,1005.3
2016-07-06T09:59:20.458Z,1005.28
2016-07-06T10:00:20.486Z,1005.35
2016-07-06T10:01:20.509Z,1005.28
2016-07-06T10:02:20.540Z,1005.38
2016-07-06T10:03:20.562Z,1005.29
2016-07-06T10:04:20.585Z,1005.39
2016-07-06T10:05:20.609Z,1005.35
2016-07-06T10:06:20.641Z,1005.42
2016-07-06T10:07:20.667Z,1005.42
2016-07-06T10:08:20.692Z,1005.41
2016-07-06T10:09:20.728Z,1005.39
2016-07-06T10:10:20.745Z,1005.37
2016-07-06T10:11:20.769Z,1005.45
2016-07-06T10:12:20.794Z,1005.4
2016-07-06T10:13:20.828Z,1005.4
2016-07-06T10:14:20.851Z,1005.41
2016-07-06T10:15:20.878Z,1005.48
2016-07-06T10:16:20.904Z,1005.55
2016-07-06T10:17:20.929Z,1005.49
2016-07-06T10:18:20.955Z,1005.48
2016-07-06T10:19:20.984Z,1005.49
2016-07-06T10:20:21.007Z,1005.51
2016-07-06T10:21:21.033Z,1005.44
2016-07-06T10:22:21.060Z,1005.45
2016-07-06T10:23:21.091Z,1005.47
2016-07-06T10:24:21.113Z,1005.43
2016-07-06T10:25:21.139Z,1005.5
2016-07-06T10:26:21.166Z,1005.46
2016-07-06T10:27:21.190Z,1005.52
2016-07-06T10:28:21.216Z,1005.48
2016-07-06T10:29:21.246Z,1005.5
2016-07-06T10:30:21.272Z,1005.45
2016-07-06T10:31:21.296Z,1005.46
2016-07-06T10:32:21.328Z,1005.53
2016-07-06T10:33:21.352Z,1005.51
2016-07-06T10:34:21.377Z,1005.52
2016-07-06T10:35:21.403Z,1005.65
2016-07-06T10:36:21.431Z,1005.61
2016-07-06T10:37:21.459Z,1005.66
2016-07-06T10:38:21.484Z,1005.61
2016-07-06T10:39:21.511Z,1005.59
2016-07-06T10:40:21.539Z,1005.55
2016-07-06T10:41:21.565Z,1005.55
2016-07-06T10:42:21.592Z,1005.67
2016-07-06T10:43:21.616Z,1005.63
2016-07-06T10:44:21.644Z,1005.66
2016-07-06T10:45:21.668Z,1005.62
2016-07-06T10:46:21.695Z,1005.64
2016-07-06T10:47:21.723Z,1005.64
2016-07-06T10:48:21.753Z,1005.61
2016-07-06T10:49:21.775Z,1005.65
2016-07-06T10:50:21.804Z,1005.67
2016-07-06T10:51:21.830Z,1005.66
2016-07-06T10:52:21.857Z,1005.7
2016-07-06T10:53:21.884Z,1005.69
2016-07-06T10:54:21.915Z,1005.75
2016-07-06T10:55:21.937Z,1005.75
2016-07-06T10:56:21.963Z,1005.72
2016-07-06T10:57:21.991Z,1005.69
2016-07-06T10:58:22.021Z,1005.63
2016-07-06T10:59:22.045Z,1005.71
2016-07-06T11:00:22.072Z,1005.69
2016-07-06T11:01:22.099Z,1005.79
2016-07-06T11:02:22.124Z,1005.75
2016-07-06T11:03:22.154Z,1005.8
2016-07-06T11:04:22.190Z,1005.78
2016-07-06T11:05:22.207Z,1005.75
2016-07-06T11:06:22.235Z,1005.7
2016-07-06T11:07:22.261Z,1005.72
2016-07-06T11:08:22.287Z,1005.76
2016-07-06T11:09:22.316Z,1005.76
2016-07-06T11:10:22.346Z,1005.7
2016-07-06T11:11:22.370Z,1005.74
2016-07-06T11:12:22.398Z,1005.81
2016-07-06T11:13:22.425Z,1005.8
2016-07-06T11:14:22.455Z,1005.82
2016-07-06T11:15:22.479Z,1005.84
2016-07-06T11:16:22.506Z,1005.89
2016-07-06T11:17:22.533Z,1005.93
2016-07-06T11:18:22.560Z,1005.91
2016-07-06T11:19:22.590Z,1005.9
2016-07-06T11:20:22.617Z,1005.86
2016-07-06T11:21:22.644Z,1005.9
2016-07-06T11:22:22.680Z,1005.87
2016-07-06T11:23:22.698Z,1005.88
2016-07-06T11:24:22.727Z,1005.91
2016-07-06T11:25:22.761Z,1005.79
2016-07-06T11:26:22.781Z,1005.87
2016-07-06T11:27:22.808Z,1005.8
2016-07-06T11:28:22.836Z,1005.85
2016-07-06T11:29:22.862Z,1005.78
2016-07-06T11:30:22.890Z,1005.79
2016-07-06T11:31:22.918Z,1005.77
2016-07-06T11:32:22.942Z,1005.77
2016-07-06T11:33:22.968Z,1005.77
2016-07-06T11:34:23.000Z,1005.77
2016-07-06T11:35:23.025Z,1005.76
2016-07-06T11:36:23.052Z,1005.73
2016-07-06T11:37:23.084Z,1005.77
2016-07-06T11:38:23.108Z,1005.73
2016-07-06T11:39:23.136Z,1005.87
2016-07-06T11:40:23.166Z,1005.92
2016-07-06T11:41:23.190Z,1005.83
2016-07-06T11:42:23.222Z,1005.78
2016-07-06T11:43:23.250Z,1005.91
2016-07-06T11:44:23.276Z,1005.86
2016-07-06T11:45:23.300Z,1005.75
2016-07-06T11:46:23.329Z,1005.85
2016-07-06T11:47:23.355Z,1005.83
2016-07-06T11:48:23.390Z,1005.84
2016-07-06T11:49:23.411Z,1005.84
2016-07-06T11:50:23.439Z,1005.85
2016-07-06T11:51:23.466Z,1005.82
2016-07-06T11:52:23.494Z,1005.8
2016-07-06T11:53:23.523Z,1005.78
2016-07-06T11:54:23.550Z,1005.74
2016-07-06T11:55:23.576Z,1005.76
2016-07-06T11:56:23.604Z,1005.81
2016-07-06T11:57:23.634Z,1005.87
2016-07-06T11:58:23.660Z,1005.89
2016-07-06T11:59:23.689Z,1005.8
2016-07-06T12:00:23.717Z,1005.8
2016-07-06T12:01:23.746Z,1005.77
2016-07-06T12:02:23.772Z,1005.75
2016-07-06T12:03:23.799Z,1005.78
2016-07-06T12:04:23.828Z,1005.9
2016-07-06T12:05:23.857Z,1005.9
2016-07-06T12:06:23.892Z,1005.73
2016-07-06T12:07:23.912Z,1005.82
2016-07-06T12:08:23.943Z,1005.83